Clayton, Ohio
Current Conditions -  °F | °C
As of 5:56 AM on Saturday 25 Oct 2014 (Local Time) from KDAY Reporting Station
Scattered Clouds Scattered Clouds  
Wind Chill: 51°   Ceiling: Unl
Heat Index: 51°   Visibility: 8mi
Dew Point: 46°   Wind: 7mph
Humidity: 83%   Direction: 210°SSW
Pressure: 29.99"   Gusts: NA
Location:  39.86°N, 84.36°W
Report Text: KDAY 250956Z 21006KT 8SM FEW036 SCT100 11/08 A2999 RMK AO2 SLP154 T01060078
Loading
Personal Weather Stations






























Interactive Weather Map
Tropical Storm Tracking
New forecast layout! Learn more

10-Day Weather Forecast

Advertisements
Track Severe Weather on mobile